world map with EBU marked

EBU - Airport

This information may not be accurate or current and is not valid for navigation or flight planning. No warranty of fitness for any purpose is made or implied.

flag of Rhône-Alpesflag of France

Donate via PayPal

Additional information is available on the NEW Great Circle Mapper

Location
City:  St-Étienne, Rhône-Alpes, France
Name:St-Étienne Bouthéon Airport
ICAO / IATA:LFMH / EBU

Details
Type:Airport (Aerodrome, Airfield)
Use:Public/Civil
Latitude:45°32'03"N (45.534050)
Longitude:4°17'50"E (4.297311)
Elevation:1325 ft (404 m)
Runways:1
Longest:7546 × 148 ft (2300 × 45 m)

Time
Timezone:UTC+1 (DST+4)
Local Time:

Weather
METAR:LFMH  041400Z AUTO 04003KT CAVOK 02/M05 Q1026 NOSIG
TAF:LFMH  041400Z 0415/0515 06003KT CAVOK PROB40 TEMPO 0502/0506 2000 BR BKN050

Related Locations
Nearby:
Farthest:CHT: 12306 mi / 19805 km
Waitangi [Tuuta], CIT, NZ

Find:

   beyond  
but within

Other Information
Maps:
Sources:

  


 


Great Circle Mapper   Great Circle Mapper
Great Circle Mapper FAQ   Great Circle Mapper FAQ
  Karl's Home Page
KLS²   KLS² Home
   GC on Facebook
Airlines of the World   Airlines of the World
Donate via PayPal


Copyright © 2004-2019, Karl L. Swartz. All rights reserved.
All trademarks mentioned herein belong to their respective owners.

Please see credits for attribution and copyright information.

Karl Swartz <karl@kls2.com>
  Powered by FreeBSD
Valid HTML 4.01!
Labeled with ICRA
hCard Microformat
Geo Microformat